sensor_id;sensor_type;location;lat;lon;timestamp;P1;durP1;ratioP1;P2;durP2;ratioP2
55362;SDS011;41244;49.242;9.060;2023-05-07T00:00:02;7.38;;;4.22;;
55362;SDS011;41244;49.242;9.060;2023-05-07T00:02:31;5.15;;;3.90;;
55362;SDS011;41244;49.242;9.060;2023-05-07T00:04:57;5.38;;;3.72;;
55362;SDS011;41244;49.242;9.060;2023-05-07T00:07:23;6.00;;;3.72;;
55362;SDS011;41244;49.242;9.060;2023-05-07T00:09:49;5.03;;;3.80;;
55362;SDS011;41244;49.242;9.060;2023-05-07T00:12:14;4.38;;;3.50;;
55362;SDS011;41244;49.242;9.060;2023-05-07T00:14:40;5.40;;;3.55;;
55362;SDS011;41244;49.242;9.060;2023-05-07T00:17:06;6.60;;;3.90;;
55362;SDS011;41244;49.242;9.060;2023-05-07T00:19:32;4.97;;;3.80;;
55362;SDS011;41244;49.242;9.060;2023-05-07T00:21:58;4.32;;;3.92;;
55362;SDS011;41244;49.242;9.060;2023-05-07T00:24:23;4.13;;;3.72;;
55362;SDS011;41244;49.242;9.060;2023-05-07T00:26:49;5.60;;;3.92;;
55362;SDS011;41244;49.242;9.060;2023-05-07T00:29:15;6.13;;;3.75;;
55362;SDS011;41244;49.242;9.060;2023-05-07T00:31:41;4.65;;;4.15;;
55362;SDS011;41244;49.242;9.060;2023-05-07T00:34:07;4.72;;;3.67;;
55362;SDS011;41244;49.242;9.060;2023-05-07T00:36:32;5.03;;;3.60;;
55362;SDS011;41244;49.242;9.060;2023-05-07T00:38:59;4.60;;;4.00;;
55362;SDS011;41244;49.242;9.060;2023-05-07T00:41:26;4.40;;;4.00;;
55362;SDS011;41244;49.242;9.060;2023-05-07T00:43:52;5.75;;;3.90;;
55362;SDS011;41244;49.242;9.060;2023-05-07T00:46:19;5.43;;;3.80;;
55362;SDS011;41244;49.242;9.060;2023-05-07T00:48:46;8.27;;;4.55;;
55362;SDS011;41244;49.242;9.060;2023-05-07T00:51:12;4.85;;;4.07;;
55362;SDS011;41244;49.242;9.060;2023-05-07T00:53:38;7.00;;;4.10;;
55362;SDS011;41244;49.242;9.060;2023-05-07T00:56:04;4.28;;;3.47;;
55362;SDS011;41244;49.242;9.060;2023-05-07T00:58:31;5.18;;;3.80;;
55362;SDS011;41244;49.242;9.060;2023-05-07T01:00:58;5.90;;;3.95;;
55362;SDS011;41244;49.242;9.060;2023-05-07T01:03:24;6.13;;;4.10;;
55362;SDS011;41244;49.242;9.060;2023-05-07T01:05:50;5.38;;;4.07;;
55362;SDS011;41244;49.242;9.060;2023-05-07T01:08:18;4.75;;;4.05;;
55362;SDS011;41244;49.242;9.060;2023-05-07T01:10:43;4.07;;;3.70;;
55362;SDS011;41244;49.242;9.060;2023-05-07T01:13:10;5.00;;;4.30;;
55362;SDS011;41244;49.242;9.060;2023-05-07T01:15:38;5.45;;;4.07;;
55362;SDS011;41244;49.242;9.060;2023-05-07T01:18:05;4.72;;;3.85;;
55362;SDS011;41244;49.242;9.060;2023-05-07T01:20:31;6.20;;;4.10;;
55362;SDS011;41244;49.242;9.060;2023-05-07T01:22:57;5.35;;;4.43;;
55362;SDS011;41244;49.242;9.060;2023-05-07T01:25:25;5.45;;;4.10;;
55362;SDS011;41244;49.242;9.060;2023-05-07T01:27:50;5.50;;;4.22;;
55362;SDS011;41244;49.242;9.060;2023-05-07T01:30:16;6.53;;;4.22;;
55362;SDS011;41244;49.242;9.060;2023-05-07T01:32:58;4.22;;;3.92;;
55362;SDS011;41244;49.242;9.060;2023-05-07T01:35:27;4.45;;;4.05;;
55362;SDS011;41244;49.242;9.060;2023-05-07T01:37:57;4.72;;;4.22;;
55362;SDS011;41244;49.242;9.060;2023-05-07T01:40:24;4.93;;;4.00;;
55362;SDS011;41244;49.242;9.060;2023-05-07T01:42:50;4.85;;;4.35;;
55362;SDS011;41244;49.242;9.060;2023-05-07T01:45:16;5.13;;;4.22;;
55362;SDS011;41244;49.242;9.060;2023-05-07T01:47:42;5.65;;;4.32;;
55362;SDS011;41244;49.242;9.060;2023-05-07T01:50:08;7.88;;;4.03;;
55362;SDS011;41244;49.242;9.060;2023-05-07T01:52:35;4.88;;;4.10;;
55362;SDS011;41244;49.242;9.060;2023-05-07T01:55:03;4.38;;;3.97;;
55362;SDS011;41244;49.242;9.060;2023-05-07T01:57:31;7.00;;;4.32;;
55362;SDS011;41244;49.242;9.060;2023-05-07T01:59:56;5.20;;;4.20;;
55362;SDS011;41244;49.242;9.060;2023-05-07T02:02:22;6.70;;;4.15;;
55362;SDS011;41244;49.242;9.060;2023-05-07T02:04:48;4.78;;;3.75;;
55362;SDS011;41244;49.242;9.060;2023-05-07T02:07:13;6.70;;;4.10;;
55362;SDS011;41244;49.242;9.060;2023-05-07T02:09:39;4.90;;;3.97;;
55362;SDS011;41244;49.242;9.060;2023-05-07T02:12:05;4.72;;;4.28;;
55362;SDS011;41244;49.242;9.060;2023-05-07T02:14:31;6.03;;;4.35;;
55362;SDS011;41244;49.242;9.060;2023-05-07T02:16:57;4.90;;;4.20;;
55362;SDS011;41244;49.242;9.060;2023-05-07T02:19:22;6.22;;;3.90;;
55362;SDS011;41244;49.242;9.060;2023-05-07T02:21:48;4.38;;;3.97;;
55362;SDS011;41244;49.242;9.060;2023-05-07T02:24:14;5.78;;;3.83;;
55362;SDS011;41244;49.242;9.060;2023-05-07T02:26:40;5.18;;;3.65;;
55362;SDS011;41244;49.242;9.060;2023-05-07T02:29:06;4.03;;;3.58;;
55362;SDS011;41244;49.242;9.060;2023-05-07T02:31:32;5.88;;;4.53;;
55362;SDS011;41244;49.242;9.060;2023-05-07T02:33:58;6.05;;;4.03;;
55362;SDS011;41244;49.242;9.060;2023-05-07T02:36:25;6.13;;;4.00;;
55362;SDS011;41244;49.242;9.060;2023-05-07T02:38:51;5.07;;;4.30;;
55362;SDS011;41244;49.242;9.060;2023-05-07T02:41:17;4.82;;;4.30;;
55362;SDS011;41244;49.242;9.060;2023-05-07T02:43:43;5.40;;;3.85;;
55362;SDS011;41244;49.242;9.060;2023-05-07T02:46:09;6.10;;;4.05;;
55362;SDS011;41244;49.242;9.060;2023-05-07T02:48:35;3.78;;;3.33;;
55362;SDS011;41244;49.242;9.060;2023-05-07T02:51:02;5.47;;;4.32;;
55362;SDS011;41244;49.242;9.060;2023-05-07T02:53:30;4.68;;;4.15;;
55362;SDS011;41244;49.242;9.060;2023-05-07T02:55:56;4.30;;;3.90;;
55362;SDS011;41244;49.242;9.060;2023-05-07T02:58:23;4.70;;;4.15;;
55362;SDS011;41244;49.242;9.060;2023-05-07T03:00:49;6.38;;;4.35;;
55362;SDS011;41244;49.242;9.060;2023-05-07T03:03:15;4.18;;;3.88;;
55362;SDS011;41244;49.242;9.060;2023-05-07T03:05:41;4.30;;;3.90;;
55362;SDS011;41244;49.242;9.060;2023-05-07T03:08:07;4.88;;;3.90;;
55362;SDS011;41244;49.242;9.060;2023-05-07T03:10:33;4.15;;;3.70;;
55362;SDS011;41244;49.242;9.060;2023-05-07T03:12:59;4.72;;;3.85;;
55362;SDS011;41244;49.242;9.060;2023-05-07T03:15:25;4.05;;;3.70;;
55362;SDS011;41244;49.242;9.060;2023-05-07T03:17:51;4.35;;;3.90;;
55362;SDS011;41244;49.242;9.060;2023-05-07T03:20:17;4.25;;;3.85;;
55362;SDS011;41244;49.242;9.060;2023-05-07T03:22:43;4.50;;;3.90;;
55362;SDS011;41244;49.242;9.060;2023-05-07T03:25:08;4.50;;;4.10;;
55362;SDS011;41244;49.242;9.060;2023-05-07T03:27:34;4.65;;;4.25;;
55362;SDS011;41244;49.242;9.060;2023-05-07T03:30:00;4.68;;;4.28;;
55362;SDS011;41244;49.242;9.060;2023-05-07T03:32:26;5.43;;;4.85;;
55362;SDS011;41244;49.242;9.060;2023-05-07T03:34:52;6.07;;;4.50;;
55362;SDS011;41244;49.242;9.060;2023-05-07T03:37:18;6.20;;;4.30;;
55362;SDS011;41244;49.242;9.060;2023-05-07T03:39:44;6.18;;;4.53;;
55362;SDS011;41244;49.242;9.060;2023-05-07T03:42:09;4.63;;;4.00;;
55362;SDS011;41244;49.242;9.060;2023-05-07T03:44:35;4.50;;;4.10;;
55362;SDS011;41244;49.242;9.060;2023-05-07T03:47:01;4.82;;;4.40;;
55362;SDS011;41244;49.242;9.060;2023-05-07T03:49:28;5.65;;;4.38;;
55362;SDS011;41244;49.242;9.060;2023-05-07T03:51:53;4.38;;;3.95;;
55362;SDS011;41244;49.242;9.060;2023-05-07T03:54:20;4.30;;;3.90;;
55362;SDS011;41244;49.242;9.060;2023-05-07T03:56:46;4.95;;;3.90;;
55362;SDS011;41244;49.242;9.060;2023-05-07T03:59:15;5.35;;;3.75;;
55362;SDS011;41244;49.242;9.060;2023-05-07T04:01:40;4.18;;;3.55;;
55362;SDS011;41244;49.242;9.060;2023-05-07T04:04:06;5.32;;;3.90;;
55362;SDS011;41244;49.242;9.060;2023-05-07T04:06:32;4.10;;;3.45;;
55362;SDS011;41244;49.242;9.060;2023-05-07T04:08:58;5.15;;;3.63;;
55362;SDS011;41244;49.242;9.060;2023-05-07T04:11:24;4.95;;;3.78;;
55362;SDS011;41244;49.242;9.060;2023-05-07T04:13:50;4.28;;;3.88;;
55362;SDS011;41244;49.242;9.060;2023-05-07T04:16:16;4.45;;;4.03;;
55362;SDS011;41244;49.242;9.060;2023-05-07T04:18:41;6.90;;;4.00;;
55362;SDS011;41244;49.242;9.060;2023-05-07T04:21:14;4.22;;;3.83;;
55362;SDS011;41244;49.242;9.060;2023-05-07T04:23:41;5.72;;;4.00;;
55362;SDS011;41244;49.242;9.060;2023-05-07T04:26:06;4.40;;;3.92;;
55362;SDS011;41244;49.242;9.060;2023-05-07T04:28:32;4.32;;;3.92;;
55362;SDS011;41244;49.242;9.060;2023-05-07T04:30:59;4.55;;;4.03;;
55362;SDS011;41244;49.242;9.060;2023-05-07T04:33:25;4.65;;;3.67;;
55362;SDS011;41244;49.242;9.060;2023-05-07T04:35:50;3.85;;;3.33;;
55362;SDS011;41244;49.242;9.060;2023-05-07T04:38:16;4.28;;;3.72;;
55362;SDS011;41244;49.242;9.060;2023-05-07T04:40:43;4.45;;;3.85;;
55362;SDS011;41244;49.242;9.060;2023-05-07T04:43:09;6.22;;;4.13;;
55362;SDS011;41244;49.242;9.060;2023-05-07T04:45:35;5.25;;;3.53;;
55362;SDS011;41244;49.242;9.060;2023-05-07T04:48:01;4.30;;;3.90;;
55362;SDS011;41244;49.242;9.060;2023-05-07T04:50:27;4.45;;;3.85;;
55362;SDS011;41244;49.242;9.060;2023-05-07T04:52:53;4.32;;;3.90;;
55362;SDS011;41244;49.242;9.060;2023-05-07T04:55:19;4.40;;;4.00;;
55362;SDS011;41244;49.242;9.060;2023-05-07T04:57:45;5.03;;;4.07;;
55362;SDS011;41244;49.242;9.060;2023-05-07T05:00:11;4.47;;;4.07;;
55362;SDS011;41244;49.242;9.060;2023-05-07T05:02:39;4.40;;;4.00;;
55362;SDS011;41244;49.242;9.060;2023-05-07T05:05:06;7.13;;;4.63;;
55362;SDS011;41244;49.242;9.060;2023-05-07T05:07:32;4.93;;;4.43;;
55362;SDS011;41244;49.242;9.060;2023-05-07T05:09:58;4.55;;;4.15;;
55362;SDS011;41244;49.242;9.060;2023-05-07T05:12:24;5.22;;;3.88;;
55362;SDS011;41244;49.242;9.060;2023-05-07T05:14:50;6.63;;;4.20;;
55362;SDS011;41244;49.242;9.060;2023-05-07T05:17:16;5.75;;;4.25;;
55362;SDS011;41244;49.242;9.060;2023-05-07T05:19:41;4.45;;;4.05;;
55362;SDS011;41244;49.242;9.060;2023-05-07T05:22:07;4.60;;;4.13;;
55362;SDS011;41244;49.242;9.060;2023-05-07T05:24:33;4.53;;;4.13;;
55362;SDS011;41244;49.242;9.060;2023-05-07T05:26:58;6.32;;;4.20;;
55362;SDS011;41244;49.242;9.060;2023-05-07T05:29:26;5.72;;;4.45;;
55362;SDS011;41244;49.242;9.060;2023-05-07T05:31:52;5.15;;;4.38;;
55362;SDS011;41244;49.242;9.060;2023-05-07T05:34:17;6.00;;;4.85;;
55362;SDS011;41244;49.242;9.060;2023-05-07T05:36:44;4.70;;;4.30;;
55362;SDS011;41244;49.242;9.060;2023-05-07T05:39:10;8.77;;;3.92;;
55362;SDS011;41244;49.242;9.060;2023-05-07T05:41:36;4.65;;;3.92;;
55362;SDS011;41244;49.242;9.060;2023-05-07T05:44:02;5.90;;;4.50;;
55362;SDS011;41244;49.242;9.060;2023-05-07T05:46:27;6.15;;;4.50;;
55362;SDS011;41244;49.242;9.060;2023-05-07T05:48:53;4.60;;;4.00;;
55362;SDS011;41244;49.242;9.060;2023-05-07T05:51:20;5.15;;;4.30;;
55362;SDS011;41244;49.242;9.060;2023-05-07T05:53:46;6.68;;;4.40;;
55362;SDS011;41244;49.242;9.060;2023-05-07T05:56:12;5.15;;;4.05;;
55362;SDS011;41244;49.242;9.060;2023-05-07T05:58:38;5.32;;;4.30;;
55362;SDS011;41244;49.242;9.060;2023-05-07T06:01:04;4.60;;;4.20;;
55362;SDS011;41244;49.242;9.060;2023-05-07T06:03:30;4.60;;;4.18;;
55362;SDS011;41244;49.242;9.060;2023-05-07T06:05:57;4.68;;;4.20;;
55362;SDS011;41244;49.242;9.060;2023-05-07T06:08:23;4.93;;;4.30;;
55362;SDS011;41244;49.242;9.060;2023-05-07T06:10:49;6.70;;;3.95;;
55362;SDS011;41244;49.242;9.060;2023-05-07T06:13:15;4.85;;;4.22;;
55362;SDS011;41244;49.242;9.060;2023-05-07T06:15:40;4.55;;;3.85;;
55362;SDS011;41244;49.242;9.060;2023-05-07T06:18:06;6.50;;;4.20;;
55362;SDS011;41244;49.242;9.060;2023-05-07T06:20:32;5.68;;;4.20;;
55362;SDS011;41244;49.242;9.060;2023-05-07T06:22:57;6.63;;;4.22;;
55362;SDS011;41244;49.242;9.060;2023-05-07T06:25:23;4.28;;;3.88;;
55362;SDS011;41244;49.242;9.060;2023-05-07T06:27:49;5.15;;;4.20;;
55362;SDS011;41244;49.242;9.060;2023-05-07T06:30:15;5.18;;;3.67;;
55362;SDS011;41244;49.242;9.060;2023-05-07T06:32:41;6.40;;;5.80;;
55362;SDS011;41244;49.242;9.060;2023-05-07T06:35:09;5.63;;;4.70;;
55362;SDS011;41244;49.242;9.060;2023-05-07T06:37:35;5.10;;;3.90;;
55362;SDS011;41244;49.242;9.060;2023-05-07T06:40:03;7.00;;;4.20;;
55362;SDS011;41244;49.242;9.060;2023-05-07T06:42:33;7.07;;;4.57;;
55362;SDS011;41244;49.242;9.060;2023-05-07T06:44:59;5.25;;;4.22;;
55362;SDS011;41244;49.242;9.060;2023-05-07T06:47:24;5.35;;;4.32;;
55362;SDS011;41244;49.242;9.060;2023-05-07T06:49:50;6.18;;;5.47;;
55362;SDS011;41244;49.242;9.060;2023-05-07T06:52:16;7.22;;;5.88;;
55362;SDS011;41244;49.242;9.060;2023-05-07T06:54:41;6.97;;;5.32;;
55362;SDS011;41244;49.242;9.060;2023-05-07T06:57:07;6.85;;;4.90;;
55362;SDS011;41244;49.242;9.060;2023-05-07T06:59:33;5.93;;;4.35;;
55362;SDS011;41244;49.242;9.060;2023-05-07T07:01:59;5.93;;;4.70;;
55362;SDS011;41244;49.242;9.060;2023-05-07T07:04:24;5.10;;;4.60;;
55362;SDS011;41244;49.242;9.060;2023-05-07T07:06:54;4.95;;;4.10;;
55362;SDS011;41244;49.242;9.060;2023-05-07T07:09:21;6.47;;;4.97;;
55362;SDS011;41244;49.242;9.060;2023-05-07T07:11:47;5.55;;;4.85;;
55362;SDS011;41244;49.242;9.060;2023-05-07T07:14:13;5.60;;;5.05;;
55362;SDS011;41244;49.242;9.060;2023-05-07T07:16:39;6.07;;;4.72;;
55362;SDS011;41244;49.242;9.060;2023-05-07T07:19:05;4.50;;;4.10;;
55362;SDS011;41244;49.242;9.060;2023-05-07T07:21:31;5.07;;;4.53;;
55362;SDS011;41244;49.242;9.060;2023-05-07T07:23:57;8.55;;;4.78;;
55362;SDS011;41244;49.242;9.060;2023-05-07T07:26:23;5.00;;;4.50;;
55362;SDS011;41244;49.242;9.060;2023-05-07T07:28:48;5.10;;;4.57;;
55362;SDS011;41244;49.242;9.060;2023-05-07T07:31:14;5.13;;;4.63;;
55362;SDS011;41244;49.242;9.060;2023-05-07T07:33:40;5.10;;;4.63;;
55362;SDS011;41244;49.242;9.060;2023-05-07T07:36:06;4.80;;;4.40;;
55362;SDS011;41244;49.242;9.060;2023-05-07T07:38:32;6.30;;;4.22;;
55362;SDS011;41244;49.242;9.060;2023-05-07T07:40:59;5.00;;;4.18;;
55362;SDS011;41244;49.242;9.060;2023-05-07T07:43:26;5.40;;;4.40;;
55362;SDS011;41244;49.242;9.060;2023-05-07T07:45:52;6.80;;;4.38;;
55362;SDS011;41244;49.242;9.060;2023-05-07T07:48:18;5.15;;;4.00;;
55362;SDS011;41244;49.242;9.060;2023-05-07T07:50:44;7.15;;;4.10;;
55362;SDS011;41244;49.242;9.060;2023-05-07T07:53:09;5.93;;;4.40;;
55362;SDS011;41244;49.242;9.060;2023-05-07T07:55:39;6.65;;;4.70;;
55362;SDS011;41244;49.242;9.060;2023-05-07T07:58:05;6.93;;;4.70;;
55362;SDS011;41244;49.242;9.060;2023-05-07T08:00:31;4.60;;;4.20;;
55362;SDS011;41244;49.242;9.060;2023-05-07T08:02:56;7.75;;;4.40;;
55362;SDS011;41244;49.242;9.060;2023-05-07T08:05:22;5.15;;;3.90;;
55362;SDS011;41244;49.242;9.060;2023-05-07T08:07:48;6.97;;;5.68;;
55362;SDS011;41244;49.242;9.060;2023-05-07T08:10:18;18.90;;;12.70;;
55362;SDS011;41244;49.242;9.060;2023-05-07T08:12:50;10.02;;;7.15;;
55362;SDS011;41244;49.242;9.060;2023-05-07T08:15:16;6.32;;;4.15;;
55362;SDS011;41244;49.242;9.060;2023-05-07T08:17:42;4.30;;;3.83;;
55362;SDS011;41244;49.242;9.060;2023-05-07T08:20:08;4.20;;;3.80;;
55362;SDS011;41244;49.242;9.060;2023-05-07T08:22:35;5.00;;;3.80;;
55362;SDS011;41244;49.242;9.060;2023-05-07T08:25:01;4.22;;;3.83;;
55362;SDS011;41244;49.242;9.060;2023-05-07T08:27:27;5.72;;;3.95;;
55362;SDS011;41244;49.242;9.060;2023-05-07T08:29:53;4.57;;;3.97;;
55362;SDS011;41244;49.242;9.060;2023-05-07T08:32:19;5.85;;;4.00;;
55362;SDS011;41244;49.242;9.060;2023-05-07T08:34:45;4.35;;;3.95;;
55362;SDS011;41244;49.242;9.060;2023-05-07T08:37:12;5.88;;;4.07;;
55362;SDS011;41244;49.242;9.060;2023-05-07T08:39:38;4.60;;;4.20;;
55362;SDS011;41244;49.242;9.060;2023-05-07T08:42:04;4.97;;;3.75;;
55362;SDS011;41244;49.242;9.060;2023-05-07T08:44:33;5.90;;;3.78;;
55362;SDS011;41244;49.242;9.060;2023-05-07T08:47:02;4.32;;;3.92;;
55362;SDS011;41244;49.242;9.060;2023-05-07T08:49:28;4.65;;;4.05;;
55362;SDS011;41244;49.242;9.060;2023-05-07T08:51:54;6.65;;;4.05;;
55362;SDS011;41244;49.242;9.060;2023-05-07T08:54:20;3.72;;;3.42;;
55362;SDS011;41244;49.242;9.060;2023-05-07T08:56:46;5.80;;;4.07;;
55362;SDS011;41244;49.242;9.060;2023-05-07T08:59:13;4.40;;;3.45;;
55362;SDS011;41244;49.242;9.060;2023-05-07T09:01:39;6.00;;;3.63;;
55362;SDS011;41244;49.242;9.060;2023-05-07T09:04:04;3.60;;;3.30;;
55362;SDS011;41244;49.242;9.060;2023-05-07T09:06:32;4.05;;;3.65;;
55362;SDS011;41244;49.242;9.060;2023-05-07T09:09:02;4.90;;;3.78;;
55362;SDS011;41244;49.242;9.060;2023-05-07T09:11:30;4.50;;;3.50;;
55362;SDS011;41244;49.242;9.060;2023-05-07T09:13:56;4.72;;;4.10;;
55362;SDS011;41244;49.242;9.060;2023-05-07T09:16:24;4.88;;;3.40;;
55362;SDS011;41244;49.242;9.060;2023-05-07T09:18:51;4.30;;;3.53;;
55362;SDS011;41244;49.242;9.060;2023-05-07T09:21:18;3.78;;;3.40;;
55362;SDS011;41244;49.242;9.060;2023-05-07T09:23:44;4.10;;;3.50;;
55362;SDS011;41244;49.242;9.060;2023-05-07T09:26:10;4.35;;;3.40;;
55362;SDS011;41244;49.242;9.060;2023-05-07T09:28:39;6.10;;;3.58;;
55362;SDS011;41244;49.242;9.060;2023-05-07T09:31:09;4.10;;;3.53;;
55362;SDS011;41244;49.242;9.060;2023-05-07T09:33:36;5.25;;;3.78;;
55362;SDS011;41244;49.242;9.060;2023-05-07T09:36:06;6.07;;;3.78;;
55362;SDS011;41244;49.242;9.060;2023-05-07T09:38:34;4.78;;;3.72;;
55362;SDS011;41244;49.242;9.060;2023-05-07T09:41:11;4.63;;;3.70;;
55362;SDS011;41244;49.242;9.060;2023-05-07T09:43:38;4.20;;;3.80;;
55362;SDS011;41244;49.242;9.060;2023-05-07T09:46:14;4.00;;;3.20;;
55362;SDS011;41244;49.242;9.060;2023-05-07T09:48:42;4.00;;;3.60;;
55362;SDS011;41244;49.242;9.060;2023-05-07T09:51:22;3.83;;;3.40;;
55362;SDS011;41244;49.242;9.060;2023-05-07T09:53:53;6.07;;;3.42;;
55362;SDS011;41244;49.242;9.060;2023-05-07T09:56:19;4.85;;;3.40;;
55362;SDS011;41244;49.242;9.060;2023-05-07T09:58:46;5.18;;;4.75;;
55362;SDS011;41244;49.242;9.060;2023-05-07T10:01:12;5.10;;;3.83;;
55362;SDS011;41244;49.242;9.060;2023-05-07T10:03:39;3.97;;;3.58;;
55362;SDS011;41244;49.242;9.060;2023-05-07T10:06:10;3.53;;;3.13;;
55362;SDS011;41244;49.242;9.060;2023-05-07T10:08:37;8.32;;;4.28;;
55362;SDS011;41244;49.242;9.060;2023-05-07T10:11:03;3.88;;;3.20;;
55362;SDS011;41244;49.242;9.060;2023-05-07T10:13:30;3.67;;;3.38;;
55362;SDS011;41244;49.242;9.060;2023-05-07T10:15:59;4.45;;;3.42;;
55362;SDS011;41244;49.242;9.060;2023-05-07T10:18:26;4.00;;;3.60;;
55362;SDS011;41244;49.242;9.060;2023-05-07T10:20:55;4.80;;;3.42;;
55362;SDS011;41244;49.242;9.060;2023-05-07T10:23:33;4.00;;;3.50;;
55362;SDS011;41244;49.242;9.060;2023-05-07T10:26:00;5.68;;;3.70;;
55362;SDS011;41244;49.242;9.060;2023-05-07T10:28:30;6.38;;;3.50;;
55362;SDS011;41244;49.242;9.060;2023-05-07T10:31:15;5.50;;;3.30;;
55362;SDS011;41244;49.242;9.060;2023-05-07T10:34:09;4.70;;;3.33;;
55362;SDS011;41244;49.242;9.060;2023-05-07T10:36:37;4.20;;;3.30;;
55362;SDS011;41244;49.242;9.060;2023-05-07T10:39:04;4.97;;;3.20;;
55362;SDS011;41244;49.242;9.060;2023-05-07T10:41:30;4.10;;;3.67;;
55362;SDS011;41244;49.242;9.060;2023-05-07T10:43:56;3.63;;;3.33;;
55362;SDS011;41244;49.242;9.060;2023-05-07T10:46:26;5.40;;;3.88;;
55362;SDS011;41244;49.242;9.060;2023-05-07T10:51:31;4.47;;;3.20;;
55362;SDS011;41244;49.242;9.060;2023-05-07T10:56:42;4.28;;;3.00;;
55362;SDS011;41244;49.242;9.060;2023-05-07T11:01:54;4.70;;;3.10;;
55362;SDS011;41244;49.242;9.060;2023-05-07T11:04:23;4.00;;;2.97;;
55362;SDS011;41244;49.242;9.060;2023-05-07T11:15:14;3.88;;;2.72;;
55362;SDS011;41244;49.242;9.060;2023-05-07T11:26:06;6.00;;;2.90;;
55362;SDS011;41244;49.242;9.060;2023-05-07T11:28:37;3.67;;;3.38;;
55362;SDS011;41244;49.242;9.060;2023-05-07T11:31:05;3.55;;;2.90;;
55362;SDS011;41244;49.242;9.060;2023-05-07T11:33:31;3.72;;;3.15;;
55362;SDS011;41244;49.242;9.060;2023-05-07T11:35:58;3.80;;;3.00;;
55362;SDS011;41244;49.242;9.060;2023-05-07T11:38:25;3.47;;;3.15;;
55362;SDS011;41244;49.242;9.060;2023-05-07T11:43:22;3.63;;;3.10;;
55362;SDS011;41244;49.242;9.060;2023-05-07T11:45:48;3.53;;;2.80;;
55362;SDS011;41244;49.242;9.060;2023-05-07T11:48:14;4.63;;;3.15;;
55362;SDS011;41244;49.242;9.060;2023-05-07T11:50:59;3.20;;;2.90;;
55362;SDS011;41244;49.242;9.060;2023-05-07T11:53:34;4.50;;;3.47;;
55362;SDS011;41244;49.242;9.060;2023-05-07T11:56:08;4.93;;;3.20;;
55362;SDS011;41244;49.242;9.060;2023-05-07T11:58:36;4.20;;;3.20;;
55362;SDS011;41244;49.242;9.060;2023-05-07T12:01:02;3.80;;;3.38;;
55362;SDS011;41244;49.242;9.060;2023-05-07T12:03:28;4.63;;;3.03;;
55362;SDS011;41244;49.242;9.060;2023-05-07T12:05:54;3.35;;;2.80;;
55362;SDS011;41244;49.242;9.060;2023-05-07T12:08:20;4.35;;;3.20;;
55362;SDS011;41244;49.242;9.060;2023-05-07T12:10:47;8.60;;;7.80;;
55362;SDS011;41244;49.242;9.060;2023-05-07T12:13:18;4.05;;;2.95;;
55362;SDS011;41244;49.242;9.060;2023-05-07T12:15:52;5.05;;;2.58;;
55362;SDS011;41244;49.242;9.060;2023-05-07T12:18:19;4.55;;;3.10;;
55362;SDS011;41244;49.242;9.060;2023-05-07T12:20:46;3.13;;;2.75;;
55362;SDS011;41244;49.242;9.060;2023-05-07T12:23:12;3.05;;;2.80;;
55362;SDS011;41244;49.242;9.060;2023-05-07T12:25:39;5.18;;;3.00;;
55362;SDS011;41244;49.242;9.060;2023-05-07T12:28:12;3.95;;;2.88;;
55362;SDS011;41244;49.242;9.060;2023-05-07T12:30:40;3.00;;;2.67;;
55362;SDS011;41244;49.242;9.060;2023-05-07T12:33:06;4.22;;;2.60;;
55362;SDS011;41244;49.242;9.060;2023-05-07T12:35:37;3.80;;;2.70;;
55362;SDS011;41244;49.242;9.060;2023-05-07T12:38:11;2.72;;;2.50;;
55362;SDS011;41244;49.242;9.060;2023-05-07T12:40:39;4.40;;;2.70;;
55362;SDS011;41244;49.242;9.060;2023-05-07T12:45:47;3.00;;;2.67;;
55362;SDS011;41244;49.242;9.060;2023-05-07T12:48:15;2.85;;;2.42;;
55362;SDS011;41244;49.242;9.060;2023-05-07T12:50:41;2.83;;;2.63;;
55362;SDS011;41244;49.242;9.060;2023-05-07T12:53:08;3.28;;;2.58;;
55362;SDS011;41244;49.242;9.060;2023-05-07T12:58:19;5.03;;;2.65;;
55362;SDS011;41244;49.242;9.060;2023-05-07T13:00:56;3.22;;;2.58;;
55362;SDS011;41244;49.242;9.060;2023-05-07T13:03:25;2.95;;;2.60;;
55362;SDS011;41244;49.242;9.060;2023-05-07T13:06:08;2.95;;;2.65;;
55362;SDS011;41244;49.242;9.060;2023-05-07T13:08:39;4.50;;;2.70;;
55362;SDS011;41244;49.242;9.060;2023-05-07T13:11:08;4.50;;;2.50;;
55362;SDS011;41244;49.242;9.060;2023-05-07T13:13:35;3.45;;;2.60;;
55362;SDS011;41244;49.242;9.060;2023-05-07T13:16:03;3.63;;;2.50;;
55362;SDS011;41244;49.242;9.060;2023-05-07T13:18:31;3.30;;;2.60;;
55362;SDS011;41244;49.242;9.060;2023-05-07T13:20:57;4.35;;;2.63;;
55362;SDS011;41244;49.242;9.060;2023-05-07T13:23:24;4.82;;;2.70;;
55362;SDS011;41244;49.242;9.060;2023-05-07T13:25:50;4.32;;;2.50;;
55362;SDS011;41244;49.242;9.060;2023-05-07T13:28:17;4.65;;;2.70;;
55362;SDS011;41244;49.242;9.060;2023-05-07T13:30:43;5.38;;;2.45;;
55362;SDS011;41244;49.242;9.060;2023-05-07T13:33:09;3.28;;;2.50;;
55362;SDS011;41244;49.242;9.060;2023-05-07T13:35:35;2.70;;;2.50;;
55362;SDS011;41244;49.242;9.060;2023-05-07T13:38:01;3.15;;;2.80;;
55362;SDS011;41244;49.242;9.060;2023-05-07T13:40:26;2.90;;;2.65;;
55362;SDS011;41244;49.242;9.060;2023-05-07T13:42:53;2.90;;;2.58;;
55362;SDS011;41244;49.242;9.060;2023-05-07T13:45:19;3.28;;;2.70;;
55362;SDS011;41244;49.242;9.060;2023-05-07T13:47:45;3.78;;;3.22;;
55362;SDS011;41244;49.242;9.060;2023-05-07T13:50:11;2.70;;;2.50;;
55362;SDS011;41244;49.242;9.060;2023-05-07T13:52:39;3.00;;;2.70;;
55362;SDS011;41244;49.242;9.060;2023-05-07T13:55:15;2.75;;;2.53;;
55362;SDS011;41244;49.242;9.060;2023-05-07T13:57:45;2.90;;;2.70;;
55362;SDS011;41244;49.242;9.060;2023-05-07T14:00:12;4.20;;;2.67;;
55362;SDS011;41244;49.242;9.060;2023-05-07T14:02:39;3.42;;;2.80;;
55362;SDS011;41244;49.242;9.060;2023-05-07T14:05:05;5.70;;;2.70;;
55362;SDS011;41244;49.242;9.060;2023-05-07T14:07:32;4.15;;;2.70;;
55362;SDS011;41244;49.242;9.060;2023-05-07T14:09:58;2.92;;;2.70;;
55362;SDS011;41244;49.242;9.060;2023-05-07T14:12:24;3.55;;;2.65;;
55362;SDS011;41244;49.242;9.060;2023-05-07T14:14:50;4.22;;;2.90;;
55362;SDS011;41244;49.242;9.060;2023-05-07T14:17:16;4.10;;;2.80;;
55362;SDS011;41244;49.242;9.060;2023-05-07T14:19:42;3.45;;;2.70;;
55362;SDS011;41244;49.242;9.060;2023-05-07T14:22:09;3.38;;;2.92;;
55362;SDS011;41244;49.242;9.060;2023-05-07T14:24:35;4.13;;;2.78;;
55362;SDS011;41244;49.242;9.060;2023-05-07T14:27:01;4.45;;;2.65;;
55362;SDS011;41244;49.242;9.060;2023-05-07T14:29:27;3.72;;;3.00;;
55362;SDS011;41244;49.242;9.060;2023-05-07T14:31:53;6.93;;;2.80;;
55362;SDS011;41244;49.242;9.060;2023-05-07T14:34:19;3.42;;;2.60;;
55362;SDS011;41244;49.242;9.060;2023-05-07T14:36:45;5.22;;;2.78;;
55362;SDS011;41244;49.242;9.060;2023-05-07T14:39:11;4.40;;;2.95;;
55362;SDS011;41244;49.242;9.060;2023-05-07T14:41:36;3.17;;;2.75;;
55362;SDS011;41244;49.242;9.060;2023-05-07T14:44:03;7.03;;;2.95;;
55362;SDS011;41244;49.242;9.060;2023-05-07T14:46:29;4.50;;;2.80;;
55362;SDS011;41244;49.242;9.060;2023-05-07T14:48:55;3.45;;;2.97;;
55362;SDS011;41244;49.242;9.060;2023-05-07T14:51:22;6.35;;;2.80;;
55362;SDS011;41244;49.242;9.060;2023-05-07T14:53:48;3.35;;;2.83;;
55362;SDS011;41244;49.242;9.060;2023-05-07T14:56:15;6.78;;;3.00;;
55362;SDS011;41244;49.242;9.060;2023-05-07T14:58:41;8.32;;;3.08;;
55362;SDS011;41244;49.242;9.060;2023-05-07T15:01:08;6.18;;;3.30;;
55362;SDS011;41244;49.242;9.060;2023-05-07T15:03:34;7.78;;;3.30;;
55362;SDS011;41244;49.242;9.060;2023-05-07T15:05:59;5.72;;;3.22;;
55362;SDS011;41244;49.242;9.060;2023-05-07T15:08:26;8.75;;;5.78;;
55362;SDS011;41244;49.242;9.060;2023-05-07T15:10:52;4.68;;;3.70;;
55362;SDS011;41244;49.242;9.060;2023-05-07T15:13:18;4.65;;;3.10;;
55362;SDS011;41244;49.242;9.060;2023-05-07T15:15:44;6.68;;;3.90;;
55362;SDS011;41244;49.242;9.060;2023-05-07T15:18:10;8.10;;;3.63;;